sensor_id;sensor_type;location;lat;lon;timestamp;P1;durP1;ratioP1;P2;durP2;ratioP2
74528;SDS011;63009;52.584;5.932;2023-12-22T00:01:06;17.05;;;2.38;;
74528;SDS011;63009;52.584;5.932;2023-12-22T00:03:32;10.25;;;2.25;;
74528;SDS011;63009;52.584;5.932;2023-12-22T00:05:57;11.10;;;2.22;;
74528;SDS011;63009;52.584;5.932;2023-12-22T00:08:22;13.60;;;2.05;;
74528;SDS011;63009;52.584;5.932;2023-12-22T00:10:48;16.17;;;2.13;;
74528;SDS011;63009;52.584;5.932;2023-12-22T00:13:14;12.82;;;1.90;;
74528;SDS011;63009;52.584;5.932;2023-12-22T00:15:39;12.77;;;2.40;;
74528;SDS011;63009;52.584;5.932;2023-12-22T00:18:05;12.55;;;1.60;;
74528;SDS011;63009;52.584;5.932;2023-12-22T00:20:30;11.00;;;2.10;;
74528;SDS011;63009;52.584;5.932;2023-12-22T00:22:55;14.17;;;1.80;;
74528;SDS011;63009;52.584;5.932;2023-12-22T00:25:21;9.27;;;1.83;;
74528;SDS011;63009;52.584;5.932;2023-12-22T00:27:46;16.05;;;2.65;;
74528;SDS011;63009;52.584;5.932;2023-12-22T00:30:11;15.57;;;2.00;;
74528;SDS011;63009;52.584;5.932;2023-12-22T00:32:37;15.95;;;2.13;;
74528;SDS011;63009;52.584;5.932;2023-12-22T00:35:03;9.85;;;1.88;;
74528;SDS011;63009;52.584;5.932;2023-12-22T00:37:29;9.68;;;2.50;;
74528;SDS011;63009;52.584;5.932;2023-12-22T00:39:55;13.48;;;1.77;;
74528;SDS011;63009;52.584;5.932;2023-12-22T00:42:20;11.10;;;2.07;;
74528;SDS011;63009;52.584;5.932;2023-12-22T00:44:45;12.75;;;1.90;;
74528;SDS011;63009;52.584;5.932;2023-12-22T00:47:11;8.35;;;1.90;;
74528;SDS011;63009;52.584;5.932;2023-12-22T00:49:37;14.88;;;2.50;;
74528;SDS011;63009;52.584;5.932;2023-12-22T00:52:02;11.45;;;2.10;;
74528;SDS011;63009;52.584;5.932;2023-12-22T00:54:28;10.00;;;2.47;;
74528;SDS011;63009;52.584;5.932;2023-12-22T00:56:55;16.67;;;2.85;;
74528;SDS011;63009;52.584;5.932;2023-12-22T00:59:21;7.68;;;1.63;;
74528;SDS011;63009;52.584;5.932;2023-12-22T01:01:46;15.30;;;2.07;;
74528;SDS011;63009;52.584;5.932;2023-12-22T01:04:11;14.35;;;2.38;;
74528;SDS011;63009;52.584;5.932;2023-12-22T01:06:37;13.40;;;2.40;;
74528;SDS011;63009;52.584;5.932;2023-12-22T01:09:05;14.50;;;2.30;;
74528;SDS011;63009;52.584;5.932;2023-12-22T01:11:30;14.93;;;1.80;;
74528;SDS011;63009;52.584;5.932;2023-12-22T01:13:55;16.00;;;2.97;;
74528;SDS011;63009;52.584;5.932;2023-12-22T01:16:21;14.80;;;2.87;;
74528;SDS011;63009;52.584;5.932;2023-12-22T01:18:47;11.10;;;2.38;;
74528;SDS011;63009;52.584;5.932;2023-12-22T01:21:13;17.80;;;2.83;;
74528;SDS011;63009;52.584;5.932;2023-12-22T01:23:38;18.92;;;2.58;;
74528;SDS011;63009;52.584;5.932;2023-12-22T01:26:04;9.60;;;2.10;;
74528;SDS011;63009;52.584;5.932;2023-12-22T01:28:29;15.40;;;2.57;;
74528;SDS011;63009;52.584;5.932;2023-12-22T01:30:54;14.27;;;2.50;;
74528;SDS011;63009;52.584;5.932;2023-12-22T01:33:20;15.23;;;2.40;;
74528;SDS011;63009;52.584;5.932;2023-12-22T01:35:45;12.53;;;2.17;;
74528;SDS011;63009;52.584;5.932;2023-12-22T01:38:10;10.93;;;2.30;;
74528;SDS011;63009;52.584;5.932;2023-12-22T01:40:35;11.68;;;1.73;;
74528;SDS011;63009;52.584;5.932;2023-12-22T01:43:01;10.33;;;1.27;;
74528;SDS011;63009;52.584;5.932;2023-12-22T01:45:26;4.07;;;0.80;;
74528;SDS011;63009;52.584;5.932;2023-12-22T01:47:52;4.73;;;0.70;;
74528;SDS011;63009;52.584;5.932;2023-12-22T01:50:17;7.97;;;0.88;;
74528;SDS011;63009;52.584;5.932;2023-12-22T01:52:43;6.13;;;1.00;;
74528;SDS011;63009;52.584;5.932;2023-12-22T01:55:09;4.40;;;0.65;;
74528;SDS011;63009;52.584;5.932;2023-12-22T01:57:37;5.97;;;0.47;;
74528;SDS011;63009;52.584;5.932;2023-12-22T02:00:03;2.53;;;0.35;;
74528;SDS011;63009;52.584;5.932;2023-12-22T02:02:29;2.72;;;0.38;;
74528;SDS011;63009;52.584;5.932;2023-12-22T02:04:55;5.10;;;1.33;;
74528;SDS011;63009;52.584;5.932;2023-12-22T02:07:22;4.32;;;0.75;;
74528;SDS011;63009;52.584;5.932;2023-12-22T02:09:47;3.27;;;0.90;;
74528;SDS011;63009;52.584;5.932;2023-12-22T02:12:13;5.82;;;0.88;;
74528;SDS011;63009;52.584;5.932;2023-12-22T02:14:38;5.10;;;0.98;;
74528;SDS011;63009;52.584;5.932;2023-12-22T02:19:42;7.18;;;1.15;;
74528;SDS011;63009;52.584;5.932;2023-12-22T02:22:12;9.80;;;1.10;;
74528;SDS011;63009;52.584;5.932;2023-12-22T02:24:38;7.13;;;1.10;;
74528;SDS011;63009;52.584;5.932;2023-12-22T02:29:37;10.15;;;1.88;;
74528;SDS011;63009;52.584;5.932;2023-12-22T02:32:10;8.32;;;1.45;;
74528;SDS011;63009;52.584;5.932;2023-12-22T02:34:39;11.95;;;1.73;;
74528;SDS011;63009;52.584;5.932;2023-12-22T02:37:08;11.80;;;1.75;;
74528;SDS011;63009;52.584;5.932;2023-12-22T02:39:35;9.57;;;1.52;;
74528;SDS011;63009;52.584;5.932;2023-12-22T02:42:02;11.38;;;1.35;;
74528;SDS011;63009;52.584;5.932;2023-12-22T02:44:29;7.65;;;1.48;;
74528;SDS011;63009;52.584;5.932;2023-12-22T02:46:54;4.88;;;1.10;;
74528;SDS011;63009;52.584;5.932;2023-12-22T02:49:20;9.13;;;1.85;;
74528;SDS011;63009;52.584;5.932;2023-12-22T02:51:45;11.13;;;1.27;;
74528;SDS011;63009;52.584;5.932;2023-12-22T02:54:10;8.97;;;1.40;;
74528;SDS011;63009;52.584;5.932;2023-12-22T02:56:36;10.57;;;2.20;;
74528;SDS011;63009;52.584;5.932;2023-12-22T02:59:01;13.35;;;1.88;;
74528;SDS011;63009;52.584;5.932;2023-12-22T03:01:26;8.68;;;1.90;;
74528;SDS011;63009;52.584;5.932;2023-12-22T03:03:52;16.23;;;2.23;;
74528;SDS011;63009;52.584;5.932;2023-12-22T03:06:17;18.83;;;3.08;;
74528;SDS011;63009;52.584;5.932;2023-12-22T03:08:42;11.70;;;1.47;;
74528;SDS011;63009;52.584;5.932;2023-12-22T03:11:08;11.50;;;1.87;;
74528;SDS011;63009;52.584;5.932;2023-12-22T03:13:33;12.17;;;2.20;;
74528;SDS011;63009;52.584;5.932;2023-12-22T03:15:58;9.75;;;1.42;;
74528;SDS011;63009;52.584;5.932;2023-12-22T03:18:23;10.40;;;2.80;;
74528;SDS011;63009;52.584;5.932;2023-12-22T03:20:49;8.73;;;1.67;;
74528;SDS011;63009;52.584;5.932;2023-12-22T03:23:14;7.53;;;0.97;;
74528;SDS011;63009;52.584;5.932;2023-12-22T03:25:39;11.67;;;1.83;;
74528;SDS011;63009;52.584;5.932;2023-12-22T03:28:05;5.72;;;1.17;;
74528;SDS011;63009;52.584;5.932;2023-12-22T03:30:30;8.98;;;1.48;;
74528;SDS011;63009;52.584;5.932;2023-12-22T03:32:55;14.67;;;1.50;;
74528;SDS011;63009;52.584;5.932;2023-12-22T03:35:21;11.47;;;1.60;;
74528;SDS011;63009;52.584;5.932;2023-12-22T03:37:46;10.33;;;1.73;;
74528;SDS011;63009;52.584;5.932;2023-12-22T03:40:11;9.63;;;1.50;;
74528;SDS011;63009;52.584;5.932;2023-12-22T03:42:37;15.05;;;1.63;;
74528;SDS011;63009;52.584;5.932;2023-12-22T03:45:02;9.50;;;1.55;;
74528;SDS011;63009;52.584;5.932;2023-12-22T03:47:28;12.73;;;2.03;;
74528;SDS011;63009;52.584;5.932;2023-12-22T03:49:53;14.17;;;2.13;;
74528;SDS011;63009;52.584;5.932;2023-12-22T03:52:18;13.37;;;2.33;;
74528;SDS011;63009;52.584;5.932;2023-12-22T03:54:44;12.87;;;2.67;;
74528;SDS011;63009;52.584;5.932;2023-12-22T03:57:09;14.47;;;2.37;;
74528;SDS011;63009;52.584;5.932;2023-12-22T03:59:34;13.70;;;3.10;;
74528;SDS011;63009;52.584;5.932;2023-12-22T04:01:59;9.52;;;1.98;;
74528;SDS011;63009;52.584;5.932;2023-12-22T04:04:26;15.23;;;2.70;;
74528;SDS011;63009;52.584;5.932;2023-12-22T04:06:53;15.45;;;2.67;;
74528;SDS011;63009;52.584;5.932;2023-12-22T04:09:18;12.68;;;2.17;;
74528;SDS011;63009;52.584;5.932;2023-12-22T04:11:44;12.70;;;2.40;;
74528;SDS011;63009;52.584;5.932;2023-12-22T04:14:09;13.85;;;2.47;;
74528;SDS011;63009;52.584;5.932;2023-12-22T04:16:36;10.70;;;2.10;;
74528;SDS011;63009;52.584;5.932;2023-12-22T04:19:04;18.35;;;3.03;;
74528;SDS011;63009;52.584;5.932;2023-12-22T04:21:29;8.77;;;1.60;;
74528;SDS011;63009;52.584;5.932;2023-12-22T04:23:55;11.57;;;2.30;;
74528;SDS011;63009;52.584;5.932;2023-12-22T04:26:20;16.80;;;2.23;;
74528;SDS011;63009;52.584;5.932;2023-12-22T04:28:45;14.60;;;2.20;;
74528;SDS011;63009;52.584;5.932;2023-12-22T04:31:11;17.65;;;2.67;;
74528;SDS011;63009;52.584;5.932;2023-12-22T04:33:36;14.38;;;3.58;;
74528;SDS011;63009;52.584;5.932;2023-12-22T04:36:01;12.13;;;2.20;;
74528;SDS011;63009;52.584;5.932;2023-12-22T04:38:27;15.77;;;2.65;;
74528;SDS011;63009;52.584;5.932;2023-12-22T04:40:52;12.57;;;2.05;;
74528;SDS011;63009;52.584;5.932;2023-12-22T04:43:17;15.73;;;2.10;;
74528;SDS011;63009;52.584;5.932;2023-12-22T04:45:43;15.80;;;2.95;;
74528;SDS011;63009;52.584;5.932;2023-12-22T04:48:08;8.93;;;1.57;;
74528;SDS011;63009;52.584;5.932;2023-12-22T04:50:33;9.68;;;1.45;;
74528;SDS011;63009;52.584;5.932;2023-12-22T04:52:59;10.20;;;1.60;;
74528;SDS011;63009;52.584;5.932;2023-12-22T04:55:24;9.40;;;2.00;;
74528;SDS011;63009;52.584;5.932;2023-12-22T04:57:49;10.82;;;1.90;;
74528;SDS011;63009;52.584;5.932;2023-12-22T05:00:15;15.50;;;2.53;;
74528;SDS011;63009;52.584;5.932;2023-12-22T05:02:40;14.23;;;2.95;;
74528;SDS011;63009;52.584;5.932;2023-12-22T05:05:06;12.90;;;2.30;;
74528;SDS011;63009;52.584;5.932;2023-12-22T05:07:33;12.43;;;1.75;;
74528;SDS011;63009;52.584;5.932;2023-12-22T05:09:58;15.02;;;2.67;;
74528;SDS011;63009;52.584;5.932;2023-12-22T05:12:24;14.43;;;2.40;;
74528;SDS011;63009;52.584;5.932;2023-12-22T05:14:49;13.63;;;2.20;;
74528;SDS011;63009;52.584;5.932;2023-12-22T05:17:14;8.63;;;2.22;;
74528;SDS011;63009;52.584;5.932;2023-12-22T05:19:40;10.77;;;1.80;;
74528;SDS011;63009;52.584;5.932;2023-12-22T05:22:05;10.90;;;2.13;;
74528;SDS011;63009;52.584;5.932;2023-12-22T05:24:30;13.97;;;2.23;;
74528;SDS011;63009;52.584;5.932;2023-12-22T05:26:56;18.42;;;2.67;;
74528;SDS011;63009;52.584;5.932;2023-12-22T05:29:21;13.80;;;2.07;;
74528;SDS011;63009;52.584;5.932;2023-12-22T05:31:46;9.30;;;1.83;;
74528;SDS011;63009;52.584;5.932;2023-12-22T05:34:12;14.33;;;2.10;;
74528;SDS011;63009;52.584;5.932;2023-12-22T05:36:37;14.67;;;2.53;;
74528;SDS011;63009;52.584;5.932;2023-12-22T05:39:02;18.90;;;3.33;;
74528;SDS011;63009;52.584;5.932;2023-12-22T05:41:28;16.35;;;2.35;;
74528;SDS011;63009;52.584;5.932;2023-12-22T05:43:53;12.80;;;1.98;;
74528;SDS011;63009;52.584;5.932;2023-12-22T05:46:19;18.30;;;2.78;;
74528;SDS011;63009;52.584;5.932;2023-12-22T05:48:44;11.73;;;2.10;;
74528;SDS011;63009;52.584;5.932;2023-12-22T05:51:09;15.25;;;3.28;;
74528;SDS011;63009;52.584;5.932;2023-12-22T05:53:38;13.80;;;1.75;;
74528;SDS011;63009;52.584;5.932;2023-12-22T05:56:05;15.30;;;3.33;;
74528;SDS011;63009;52.584;5.932;2023-12-22T05:58:41;15.55;;;2.08;;
74528;SDS011;63009;52.584;5.932;2023-12-22T06:01:06;12.77;;;2.20;;
74528;SDS011;63009;52.584;5.932;2023-12-22T06:03:31;21.30;;;3.03;;
74528;SDS011;63009;52.584;5.932;2023-12-22T06:05:57;23.77;;;3.97;;
74528;SDS011;63009;52.584;5.932;2023-12-22T06:08:22;16.60;;;2.63;;
74528;SDS011;63009;52.584;5.932;2023-12-22T06:10:48;14.40;;;2.77;;
74528;SDS011;63009;52.584;5.932;2023-12-22T06:13:13;15.23;;;2.50;;
74528;SDS011;63009;52.584;5.932;2023-12-22T06:15:39;14.40;;;1.92;;
74528;SDS011;63009;52.584;5.932;2023-12-22T06:18:04;15.07;;;2.77;;
74528;SDS011;63009;52.584;5.932;2023-12-22T06:20:29;16.88;;;2.58;;
74528;SDS011;63009;52.584;5.932;2023-12-22T06:22:54;14.63;;;2.63;;
74528;SDS011;63009;52.584;5.932;2023-12-22T06:25:20;14.40;;;2.53;;
74528;SDS011;63009;52.584;5.932;2023-12-22T06:27:45;13.00;;;2.30;;
74528;SDS011;63009;52.584;5.932;2023-12-22T06:30:11;11.55;;;1.92;;
74528;SDS011;63009;52.584;5.932;2023-12-22T06:32:36;14.48;;;2.25;;
74528;SDS011;63009;52.584;5.932;2023-12-22T06:35:04;11.82;;;2.53;;
74528;SDS011;63009;52.584;5.932;2023-12-22T06:37:30;11.57;;;2.28;;
74528;SDS011;63009;52.584;5.932;2023-12-22T06:39:55;12.83;;;2.00;;
74528;SDS011;63009;52.584;5.932;2023-12-22T06:42:21;9.97;;;2.20;;
74528;SDS011;63009;52.584;5.932;2023-12-22T06:44:46;11.32;;;1.60;;
74528;SDS011;63009;52.584;5.932;2023-12-22T06:47:11;8.00;;;1.73;;
74528;SDS011;63009;52.584;5.932;2023-12-22T06:49:37;14.60;;;2.10;;
74528;SDS011;63009;52.584;5.932;2023-12-22T06:52:02;11.07;;;2.10;;
74528;SDS011;63009;52.584;5.932;2023-12-22T06:54:27;10.95;;;1.55;;
74528;SDS011;63009;52.584;5.932;2023-12-22T06:56:54;8.57;;;1.58;;
74528;SDS011;63009;52.584;5.932;2023-12-22T06:59:19;9.95;;;2.03;;
74528;SDS011;63009;52.584;5.932;2023-12-22T07:01:45;12.98;;;2.10;;
74528;SDS011;63009;52.584;5.932;2023-12-22T07:04:10;10.27;;;2.47;;
74528;SDS011;63009;52.584;5.932;2023-12-22T07:06:35;8.20;;;1.43;;
74528;SDS011;63009;52.584;5.932;2023-12-22T07:11:46;7.25;;;1.67;;
74528;SDS011;63009;52.584;5.932;2023-12-22T07:16:38;5.78;;;1.25;;
74528;SDS011;63009;52.584;5.932;2023-12-22T07:19:04;8.77;;;1.48;;
74528;SDS011;63009;52.584;5.932;2023-12-22T07:21:30;10.10;;;1.58;;
74528;SDS011;63009;52.584;5.932;2023-12-22T07:23:55;8.77;;;1.35;;
74528;SDS011;63009;52.584;5.932;2023-12-22T07:26:21;7.65;;;1.73;;
74528;SDS011;63009;52.584;5.932;2023-12-22T07:28:49;5.45;;;1.08;;
74528;SDS011;63009;52.584;5.932;2023-12-22T07:31:14;5.80;;;0.95;;
74528;SDS011;63009;52.584;5.932;2023-12-22T07:33:39;5.50;;;1.00;;
74528;SDS011;63009;52.584;5.932;2023-12-22T07:36:05;10.05;;;1.20;;
74528;SDS011;63009;52.584;5.932;2023-12-22T07:38:31;7.10;;;1.25;;
74528;SDS011;63009;52.584;5.932;2023-12-22T07:40:57;4.88;;;0.93;;
74528;SDS011;63009;52.584;5.932;2023-12-22T07:43:22;5.30;;;1.10;;
74528;SDS011;63009;52.584;5.932;2023-12-22T07:45:48;8.35;;;1.13;;
74528;SDS011;63009;52.584;5.932;2023-12-22T07:48:15;7.65;;;1.20;;
74528;SDS011;63009;52.584;5.932;2023-12-22T07:50:40;15.38;;;2.22;;
74528;SDS011;63009;52.584;5.932;2023-12-22T07:53:07;9.63;;;1.65;;
74528;SDS011;63009;52.584;5.932;2023-12-22T07:55:33;15.07;;;2.35;;
74528;SDS011;63009;52.584;5.932;2023-12-22T07:57:59;14.32;;;2.78;;
74528;SDS011;63009;52.584;5.932;2023-12-22T08:00:24;8.88;;;1.55;;
74528;SDS011;63009;52.584;5.932;2023-12-22T08:02:50;10.27;;;1.70;;
74528;SDS011;63009;52.584;5.932;2023-12-22T08:05:15;11.43;;;1.90;;
74528;SDS011;63009;52.584;5.932;2023-12-22T08:07:40;9.32;;;1.33;;
74528;SDS011;63009;52.584;5.932;2023-12-22T08:10:06;15.52;;;2.40;;
74528;SDS011;63009;52.584;5.932;2023-12-22T08:12:31;7.25;;;1.45;;
74528;SDS011;63009;52.584;5.932;2023-12-22T08:14:57;5.63;;;1.58;;
74528;SDS011;63009;52.584;5.932;2023-12-22T08:17:23;16.00;;;2.30;;
74528;SDS011;63009;52.584;5.932;2023-12-22T08:19:49;9.52;;;1.90;;
74528;SDS011;63009;52.584;5.932;2023-12-22T08:22:14;9.00;;;1.55;;
74528;SDS011;63009;52.584;5.932;2023-12-22T08:24:40;13.05;;;1.77;;
74528;SDS011;63009;52.584;5.932;2023-12-22T08:27:06;16.10;;;2.13;;
74528;SDS011;63009;52.584;5.932;2023-12-22T08:29:32;12.98;;;1.85;;
74528;SDS011;63009;52.584;5.932;2023-12-22T08:31:58;9.48;;;1.55;;
74528;SDS011;63009;52.584;5.932;2023-12-22T08:34:23;9.85;;;1.70;;
74528;SDS011;63009;52.584;5.932;2023-12-22T08:36:49;10.10;;;1.70;;
74528;SDS011;63009;52.584;5.932;2023-12-22T08:39:14;10.52;;;2.30;;
74528;SDS011;63009;52.584;5.932;2023-12-22T08:41:40;8.85;;;1.50;;
74528;SDS011;63009;52.584;5.932;2023-12-22T08:44:06;11.98;;;1.70;;
74528;SDS011;63009;52.584;5.932;2023-12-22T08:46:31;17.27;;;1.98;;
74528;SDS011;63009;52.584;5.932;2023-12-22T08:48:57;8.55;;;1.58;;
74528;SDS011;63009;52.584;5.932;2023-12-22T08:51:24;11.15;;;1.83;;
74528;SDS011;63009;52.584;5.932;2023-12-22T08:56:19;8.95;;;1.48;;
74528;SDS011;63009;52.584;5.932;2023-12-22T08:58:46;11.40;;;1.77;;
74528;SDS011;63009;52.584;5.932;2023-12-22T09:01:14;10.75;;;1.95;;
74528;SDS011;63009;52.584;5.932;2023-12-22T09:03:40;12.48;;;1.80;;
74528;SDS011;63009;52.584;5.932;2023-12-22T09:06:10;14.02;;;2.28;;
74528;SDS011;63009;52.584;5.932;2023-12-22T09:08:38;10.98;;;1.70;;
74528;SDS011;63009;52.584;5.932;2023-12-22T09:11:03;8.53;;;1.63;;
74528;SDS011;63009;52.584;5.932;2023-12-22T09:13:28;13.38;;;2.92;;
74528;SDS011;63009;52.584;5.932;2023-12-22T09:15:56;13.00;;;2.53;;
74528;SDS011;63009;52.584;5.932;2023-12-22T09:18:22;13.00;;;2.50;;
74528;SDS011;63009;52.584;5.932;2023-12-22T09:20:48;8.93;;;1.42;;
74528;SDS011;63009;52.584;5.932;2023-12-22T09:23:13;7.60;;;1.52;;
74528;SDS011;63009;52.584;5.932;2023-12-22T09:25:39;7.80;;;1.40;;
74528;SDS011;63009;52.584;5.932;2023-12-22T09:28:04;10.00;;;1.45;;
74528;SDS011;63009;52.584;5.932;2023-12-22T09:30:30;11.38;;;2.35;;
74528;SDS011;63009;52.584;5.932;2023-12-22T09:32:56;10.05;;;1.52;;
74528;SDS011;63009;52.584;5.932;2023-12-22T09:35:22;8.52;;;1.90;;
74528;SDS011;63009;52.584;5.932;2023-12-22T09:37:49;9.07;;;1.38;;
74528;SDS011;63009;52.584;5.932;2023-12-22T09:40:14;9.05;;;1.30;;
74528;SDS011;63009;52.584;5.932;2023-12-22T09:42:40;5.45;;;1.20;;
74528;SDS011;63009;52.584;5.932;2023-12-22T09:45:07;6.28;;;1.10;;
74528;SDS011;63009;52.584;5.932;2023-12-22T09:50:01;4.63;;;1.00;;
74528;SDS011;63009;52.584;5.932;2023-12-22T09:52:27;6.22;;;0.88;;
74528;SDS011;63009;52.584;5.932;2023-12-22T09:54:56;6.03;;;0.98;;
74528;SDS011;63009;52.584;5.932;2023-12-22T09:57:23;5.75;;;1.40;;
74528;SDS011;63009;52.584;5.932;2023-12-22T09:59:51;6.57;;;1.40;;
74528;SDS011;63009;52.584;5.932;2023-12-22T10:02:17;8.85;;;2.10;;
74528;SDS011;63009;52.584;5.932;2023-12-22T10:04:42;6.85;;;1.10;;
74528;SDS011;63009;52.584;5.932;2023-12-22T10:07:09;8.10;;;1.30;;
74528;SDS011;63009;52.584;5.932;2023-12-22T10:09:36;9.05;;;1.30;;
74528;SDS011;63009;52.584;5.932;2023-12-22T10:12:01;5.82;;;0.95;;
74528;SDS011;63009;52.584;5.932;2023-12-22T10:14:29;4.93;;;1.00;;
74528;SDS011;63009;52.584;5.932;2023-12-22T10:16:55;5.82;;;1.05;;
74528;SDS011;63009;52.584;5.932;2023-12-22T10:19:21;10.02;;;1.10;;
74528;SDS011;63009;52.584;5.932;2023-12-22T10:21:48;7.68;;;1.20;;
74528;SDS011;63009;52.584;5.932;2023-12-22T10:27:08;6.03;;;0.88;;
74528;SDS011;63009;52.584;5.932;2023-12-22T10:29:37;7.75;;;1.13;;
74528;SDS011;63009;52.584;5.932;2023-12-22T10:32:02;4.32;;;1.00;;
74528;SDS011;63009;52.584;5.932;2023-12-22T10:34:30;8.23;;;1.13;;
74528;SDS011;63009;52.584;5.932;2023-12-22T10:36:56;6.72;;;1.70;;
74528;SDS011;63009;52.584;5.932;2023-12-22T10:39:21;4.60;;;1.25;;
74528;SDS011;63009;52.584;5.932;2023-12-22T10:41:47;6.72;;;1.13;;
74528;SDS011;63009;52.584;5.932;2023-12-22T10:44:14;4.47;;;1.23;;
74528;SDS011;63009;52.584;5.932;2023-12-22T10:46:42;5.65;;;0.65;;
74528;SDS011;63009;52.584;5.932;2023-12-22T10:49:07;4.43;;;0.65;;
74528;SDS011;63009;52.584;5.932;2023-12-22T10:51:33;3.83;;;0.88;;
74528;SDS011;63009;52.584;5.932;2023-12-22T10:53:58;3.17;;;0.60;;
74528;SDS011;63009;52.584;5.932;2023-12-22T10:56:27;2.28;;;0.70;;
74528;SDS011;63009;52.584;5.932;2023-12-22T10:58:53;4.30;;;0.77;;
74528;SDS011;63009;52.584;5.932;2023-12-22T11:01:18;2.88;;;1.02;;
74528;SDS011;63009;52.584;5.932;2023-12-22T11:03:47;3.33;;;0.70;;
74528;SDS011;63009;52.584;5.932;2023-12-22T11:06:15;4.57;;;1.10;;
74528;SDS011;63009;52.584;5.932;2023-12-22T11:08:41;4.45;;;0.73;;
74528;SDS011;63009;52.584;5.932;2023-12-22T11:11:24;4.32;;;0.70;;
74528;SDS011;63009;52.584;5.932;2023-12-22T11:13:55;4.55;;;0.70;;
74528;SDS011;63009;52.584;5.932;2023-12-22T11:16:21;4.72;;;1.17;;
74528;SDS011;63009;52.584;5.932;2023-12-22T11:18:49;4.47;;;0.65;;
74528;SDS011;63009;52.584;5.932;2023-12-22T11:21:19;2.15;;;0.88;;
74528;SDS011;63009;52.584;5.932;2023-12-22T11:23:46;1.98;;;0.60;;
74528;SDS011;63009;52.584;5.932;2023-12-22T11:26:12;3.85;;;1.02;;
74528;SDS011;63009;52.584;5.932;2023-12-22T11:28:40;2.72;;;0.70;;
74528;SDS011;63009;52.584;5.932;2023-12-22T11:31:09;4.40;;;0.93;;
74528;SDS011;63009;52.584;5.932;2023-12-22T11:33:35;2.83;;;0.55;;
74528;SDS011;63009;52.584;5.932;2023-12-22T11:36:01;4.03;;;0.80;;
74528;SDS011;63009;52.584;5.932;2023-12-22T11:38:29;4.50;;;0.93;;
74528;SDS011;63009;52.584;5.932;2023-12-22T11:40:54;7.38;;;1.35;;
74528;SDS011;63009;52.584;5.932;2023-12-22T11:43:20;7.53;;;1.23;;
74528;SDS011;63009;52.584;5.932;2023-12-22T11:45:48;5.88;;;1.10;;
74528;SDS011;63009;52.584;5.932;2023-12-22T11:48:14;3.20;;;0.70;;
74528;SDS011;63009;52.584;5.932;2023-12-22T11:50:41;5.70;;;1.00;;
74528;SDS011;63009;52.584;5.932;2023-12-22T11:53:17;5.22;;;0.85;;
74528;SDS011;63009;52.584;5.932;2023-12-22T11:58:40;3.50;;;0.65;;
74528;SDS011;63009;52.584;5.932;2023-12-22T12:01:07;5.10;;;0.90;;
74528;SDS011;63009;52.584;5.932;2023-12-22T12:03:35;4.03;;;1.05;;
74528;SDS011;63009;52.584;5.932;2023-12-22T12:08:47;4.40;;;1.00;;
74528;SDS011;63009;52.584;5.932;2023-12-22T12:11:14;4.95;;;0.70;;
74528;SDS011;63009;52.584;5.932;2023-12-22T12:13:43;2.03;;;0.60;;
74528;SDS011;63009;52.584;5.932;2023-12-22T12:16:12;4.97;;;0.70;;
74528;SDS011;63009;52.584;5.932;2023-12-22T12:18:44;4.60;;;0.93;;
74528;SDS011;63009;52.584;5.932;2023-12-22T12:21:10;3.20;;;0.68;;
74528;SDS011;63009;52.584;5.932;2023-12-22T12:23:36;4.68;;;0.88;;
74528;SDS011;63009;52.584;5.932;2023-12-22T12:26:03;6.45;;;1.05;;
74528;SDS011;63009;52.584;5.932;2023-12-22T12:28:31;5.90;;;0.68;;
74528;SDS011;63009;52.584;5.932;2023-12-22T12:31:02;5.18;;;1.70;;
74528;SDS011;63009;52.584;5.932;2023-12-22T12:33:30;1.90;;;0.40;;
74528;SDS011;63009;52.584;5.932;2023-12-22T12:35:57;2.85;;;0.70;;
74528;SDS011;63009;52.584;5.932;2023-12-22T12:38:36;6.70;;;1.15;;
74528;SDS011;63009;52.584;5.932;2023-12-22T12:41:05;3.17;;;0.75;;
74528;SDS011;63009;52.584;5.932;2023-12-22T12:43:31;5.38;;;0.65;;
74528;SDS011;63009;52.584;5.932;2023-12-22T12:46:02;2.97;;;0.50;;
74528;SDS011;63009;52.584;5.932;2023-12-22T12:48:31;6.57;;;0.60;;
74528;SDS011;63009;52.584;5.932;2023-12-22T12:51:00;6.05;;;0.68;;
74528;SDS011;63009;52.584;5.932;2023-12-22T12:53:32;5.53;;;0.77;;
74528;SDS011;63009;52.584;5.932;2023-12-22T12:55:59;0.65;;;0.20;;
74528;SDS011;63009;52.584;5.932;2023-12-22T12:58:31;3.88;;;0.60;;
74528;SDS011;63009;52.584;5.932;2023-12-22T13:01:04;1.02;;;0.17;;
74528;SDS011;63009;52.584;5.932;2023-12-22T13:03:31;1.90;;;0.40;;
74528;SDS011;63009;52.584;5.932;2023-12-22T13:06:08;7.40;;;0.90;;
74528;SDS011;63009;52.584;5.932;2023-12-22T13:08:34;5.60;;;1.33;;
74528;SDS011;63009;52.584;5.932;2023-12-22T13:11:00;3.22;;;0.75;;
74528;SDS011;63009;52.584;5.932;2023-12-22T13:13:29;4.22;;;0.47;;
74528;SDS011;63009;52.584;5.932;2023-12-22T13:15:54;5.32;;;0.82;;
74528;SDS011;63009;52.584;5.932;2023-12-22T13:18:20;5.47;;;1.20;;
74528;SDS011;63009;52.584;5.932;2023-12-22T13:20:46;16.15;;;1.40;;
74528;SDS011;63009;52.584;5.932;2023-12-22T13:23:12;2.42;;;0.50;;
74528;SDS011;63009;52.584;5.932;2023-12-22T13:25:44;5.68;;;0.80;;
74528;SDS011;63009;52.584;5.932;2023-12-22T13:28:09;5.53;;;0.95;;
74528;SDS011;63009;52.584;5.932;2023-12-22T13:30:38;7.35;;;1.55;;
74528;SDS011;63009;52.584;5.932;2023-12-22T13:33:09;4.70;;;1.05;;
74528;SDS011;63009;52.584;5.932;2023-12-22T13:35:35;7.55;;;1.00;;
74528;SDS011;63009;52.584;5.932;2023-12-22T13:38:01;5.68;;;0.98;;
74528;SDS011;63009;52.584;5.932;2023-12-22T13:40:31;4.97;;;1.05;;
74528;SDS011;63009;52.584;5.932;2023-12-22T13:42:57;7.85;;;1.27;;
74528;SDS011;63009;52.584;5.932;2023-12-22T13:45:23;7.38;;;0.90;;
74528;SDS011;63009;52.584;5.932;2023-12-22T13:47:49;10.55;;;1.10;;
74528;SDS011;63009;52.584;5.932;2023-12-22T13:50:15;5.38;;;0.90;;
74528;SDS011;63009;52.584;5.932;2023-12-22T13:52:41;5.38;;;1.00;;
74528;SDS011;63009;52.584;5.932;2023-12-22T13:55:13;3.40;;;1.00;;
74528;SDS011;63009;52.584;5.932;2023-12-22T13:57:39;6.45;;;1.10;;
74528;SDS011;63009;52.584;5.932;2023-12-22T14:02:46;8.32;;;1.10;;
74528;SDS011;63009;52.584;5.932;2023-12-22T14:05:14;8.93;;;1.60;;
74528;SDS011;63009;52.584;5.932;2023-12-22T14:07:39;13.20;;;1.67;;
74528;SDS011;63009;52.584;5.932;2023-12-22T14:10:05;9.70;;;1.63;;
74528;SDS011;63009;52.584;5.932;2023-12-22T14:12:30;11.40;;;3.17;;
74528;SDS011;63009;52.584;5.932;2023-12-22T14:14:56;14.48;;;2.20;;
74528;SDS011;63009;52.584;5.932;2023-12-22T14:17:21;13.68;;;2.78;;
74528;SDS011;63009;52.584;5.932;2023-12-22T14:19:47;11.68;;;2.05;;
74528;SDS011;63009;52.584;5.932;2023-12-22T14:22:14;14.07;;;2.40;;
74528;SDS011;63009;52.584;5.932;2023-12-22T14:24:40;13.50;;;2.05;;
74528;SDS011;63009;52.584;5.932;2023-12-22T14:27:05;8.90;;;2.30;;
74528;SDS011;63009;52.584;5.932;2023-12-22T14:29:30;12.85;;;2.08;;
74528;SDS011;63009;52.584;5.932;2023-12-22T14:31:56;13.68;;;2.58;;
74528;SDS011;63009;52.584;5.932;2023-12-22T14:34:21;13.40;;;2.25;;
74528;SDS011;63009;52.584;5.932;2023-12-22T14:36:47;13.35;;;2.00;;
74528;SDS011;63009;52.584;5.932;2023-12-22T14:39:12;13.52;;;2.22;;
74528;SDS011;63009;52.584;5.932;2023-12-22T14:41:41;17.80;;;3.28;;
74528;SDS011;63009;52.584;5.932;2023-12-22T14:44:09;9.27;;;1.65;;
74528;SDS011;63009;52.584;5.932;2023-12-22T14:46:38;2.08;;;0.40;;
74528;SDS011;63009;52.584;5.932;2023-12-22T14:49:04;3.28;;;0.55;;
74528;SDS011;63009;52.584;5.932;2023-12-22T14:51:34;2.20;;;0.50;;
74528;SDS011;63009;52.584;5.932;2023-12-22T14:54:03;6.45;;;0.98;;
74528;SDS011;63009;52.584;5.932;2023-12-22T14:56:33;4.93;;;0.70;;
74528;SDS011;63009;52.584;5.932;2023-12-22T14:58:59;1.83;;;0.50;;
74528;SDS011;63009;52.584;5.932;2023-12-22T15:01:24;4.45;;;0.60;;